sensor_id;sensor_type;location;lat;lon;timestamp;temperature;humidity
32293;DHT22;43233;48.608;8.838;2024-02-26T00:01:53;6.80;41.90
32293;DHT22;43233;48.608;8.838;2024-02-26T00:04:19;6.70;41.80
32293;DHT22;43233;48.608;8.838;2024-02-26T00:06:45;6.70;42.00
32293;DHT22;43233;48.608;8.838;2024-02-26T00:09:10;6.70;42.80
32293;DHT22;43233;48.608;8.838;2024-02-26T00:11:36;6.70;42.50
32293;DHT22;43233;48.608;8.838;2024-02-26T00:14:03;6.60;43.30
32293;DHT22;43233;48.608;8.838;2024-02-26T00:16:29;6.60;43.60
32293;DHT22;43233;48.608;8.838;2024-02-26T00:18:54;6.70;43.80
32293;DHT22;43233;48.608;8.838;2024-02-26T00:21:20;6.60;43.70
32293;DHT22;43233;48.608;8.838;2024-02-26T00:23:46;6.70;44.00
32293;DHT22;43233;48.608;8.838;2024-02-26T00:26:12;6.60;44.50
32293;DHT22;43233;48.608;8.838;2024-02-26T00:28:37;6.50;45.10
32293;DHT22;43233;48.608;8.838;2024-02-26T00:31:03;6.50;44.80
32293;DHT22;43233;48.608;8.838;2024-02-26T00:33:29;6.50;44.10
32293;DHT22;43233;48.608;8.838;2024-02-26T00:35:54;6.60;43.80
32293;DHT22;43233;48.608;8.838;2024-02-26T00:38:20;6.60;43.90
32293;DHT22;43233;48.608;8.838;2024-02-26T00:40:46;6.60;44.40
32293;DHT22;43233;48.608;8.838;2024-02-26T00:43:11;6.60;44.10
32293;DHT22;43233;48.608;8.838;2024-02-26T00:45:37;6.60;43.80
32293;DHT22;43233;48.608;8.838;2024-02-26T00:48:03;6.60;44.20
32293;DHT22;43233;48.608;8.838;2024-02-26T00:50:31;6.50;44.50
32293;DHT22;43233;48.608;8.838;2024-02-26T00:52:57;6.50;44.50
32293;DHT22;43233;48.608;8.838;2024-02-26T00:55:23;6.50;44.20
32293;DHT22;43233;48.608;8.838;2024-02-26T00:57:48;6.50;43.40
32293;DHT22;43233;48.608;8.838;2024-02-26T01:00:14;6.50;43.30
32293;DHT22;43233;48.608;8.838;2024-02-26T01:02:40;6.60;42.70
32293;DHT22;43233;48.608;8.838;2024-02-26T01:05:07;6.60;42.70
32293;DHT22;43233;48.608;8.838;2024-02-26T01:07:35;6.60;43.70
32293;DHT22;43233;48.608;8.838;2024-02-26T01:10:04;6.60;43.20
32293;DHT22;43233;48.608;8.838;2024-02-26T01:12:34;6.60;42.90
32293;DHT22;43233;48.608;8.838;2024-02-26T01:15:01;6.60;42.80
32293;DHT22;43233;48.608;8.838;2024-02-26T01:17:26;6.60;41.80
32293;DHT22;43233;48.608;8.838;2024-02-26T01:19:52;6.60;40.90
32293;DHT22;43233;48.608;8.838;2024-02-26T01:22:19;6.60;41.90
32293;DHT22;43233;48.608;8.838;2024-02-26T01:24:44;6.60;41.90
32293;DHT22;43233;48.608;8.838;2024-02-26T01:27:10;6.70;41.80
32293;DHT22;43233;48.608;8.838;2024-02-26T01:29:36;6.70;40.70
32293;DHT22;43233;48.608;8.838;2024-02-26T01:32:01;6.70;41.50
32293;DHT22;43233;48.608;8.838;2024-02-26T01:34:28;6.70;41.30
32293;DHT22;43233;48.608;8.838;2024-02-26T01:36:53;6.70;38.90
32293;DHT22;43233;48.608;8.838;2024-02-26T01:39:21;6.70;37.10
32293;DHT22;43233;48.608;8.838;2024-02-26T01:41:47;6.80;37.70
32293;DHT22;43233;48.608;8.838;2024-02-26T01:44:13;6.80;38.00
32293;DHT22;43233;48.608;8.838;2024-02-26T01:46:39;6.80;39.50
32293;DHT22;43233;48.608;8.838;2024-02-26T01:49:05;6.90;38.20
32293;DHT22;43233;48.608;8.838;2024-02-26T01:51:32;6.80;38.30
32293;DHT22;43233;48.608;8.838;2024-02-26T01:53:59;6.80;39.20
32293;DHT22;43233;48.608;8.838;2024-02-26T01:56:26;6.80;39.90
32293;DHT22;43233;48.608;8.838;2024-02-26T01:58:57;6.80;39.30
32293;DHT22;43233;48.608;8.838;2024-02-26T02:01:28;6.80;38.60
32293;DHT22;43233;48.608;8.838;2024-02-26T02:03:57;6.90;38.60
32293;DHT22;43233;48.608;8.838;2024-02-26T02:06:23;6.90;38.20
32293;DHT22;43233;48.608;8.838;2024-02-26T02:08:49;6.90;38.70
32293;DHT22;43233;48.608;8.838;2024-02-26T02:11:15;6.90;38.80
32293;DHT22;43233;48.608;8.838;2024-02-26T02:13:40;6.90;38.90
32293;DHT22;43233;48.608;8.838;2024-02-26T02:16:06;6.90;39.40
32293;DHT22;43233;48.608;8.838;2024-02-26T02:18:33;7.00;38.80
32293;DHT22;43233;48.608;8.838;2024-02-26T02:21:00;7.00;38.00
32293;DHT22;43233;48.608;8.838;2024-02-26T02:23:25;7.10;38.70
32293;DHT22;43233;48.608;8.838;2024-02-26T02:25:52;7.30;39.10
32293;DHT22;43233;48.608;8.838;2024-02-26T02:28:18;7.30;39.30
32293;DHT22;43233;48.608;8.838;2024-02-26T02:30:44;7.40;40.60
32293;DHT22;43233;48.608;8.838;2024-02-26T02:33:09;7.40;41.10
32293;DHT22;43233;48.608;8.838;2024-02-26T02:35:37;7.30;40.70
32293;DHT22;43233;48.608;8.838;2024-02-26T02:38:03;7.30;40.70
32293;DHT22;43233;48.608;8.838;2024-02-26T02:40:29;7.30;40.90
32293;DHT22;43233;48.608;8.838;2024-02-26T02:42:54;7.30;41.40
32293;DHT22;43233;48.608;8.838;2024-02-26T02:45:20;7.30;40.90
32293;DHT22;43233;48.608;8.838;2024-02-26T02:47:45;7.20;40.20
32293;DHT22;43233;48.608;8.838;2024-02-26T02:50:11;7.30;39.40
32293;DHT22;43233;48.608;8.838;2024-02-26T02:52:36;7.30;39.20
32293;DHT22;43233;48.608;8.838;2024-02-26T02:55:02;7.30;38.90
32293;DHT22;43233;48.608;8.838;2024-02-26T02:57:28;7.30;39.40
32293;DHT22;43233;48.608;8.838;2024-02-26T02:59:55;7.40;40.60
32293;DHT22;43233;48.608;8.838;2024-02-26T03:02:20;7.40;41.30
32293;DHT22;43233;48.608;8.838;2024-02-26T03:04:46;7.40;42.20
32293;DHT22;43233;48.608;8.838;2024-02-26T03:07:11;7.40;42.60
32293;DHT22;43233;48.608;8.838;2024-02-26T03:09:37;7.40;43.30
32293;DHT22;43233;48.608;8.838;2024-02-26T03:12:03;7.30;44.40
32293;DHT22;43233;48.608;8.838;2024-02-26T03:14:28;7.30;44.60
32293;DHT22;43233;48.608;8.838;2024-02-26T03:16:55;7.20;44.80
32293;DHT22;43233;48.608;8.838;2024-02-26T03:19:20;7.20;45.40
32293;DHT22;43233;48.608;8.838;2024-02-26T03:21:46;7.20;45.70
32293;DHT22;43233;48.608;8.838;2024-02-26T03:24:12;7.10;46.90
32293;DHT22;43233;48.608;8.838;2024-02-26T03:26:38;7.10;47.50
32293;DHT22;43233;48.608;8.838;2024-02-26T03:29:04;7.10;48.30
32293;DHT22;43233;48.608;8.838;2024-02-26T03:31:29;7.10;48.30
32293;DHT22;43233;48.608;8.838;2024-02-26T03:33:55;7.10;48.80
32293;DHT22;43233;48.608;8.838;2024-02-26T03:36:21;7.10;49.70
32293;DHT22;43233;48.608;8.838;2024-02-26T03:38:47;7.00;50.40
32293;DHT22;43233;48.608;8.838;2024-02-26T03:41:13;7.00;50.40
32293;DHT22;43233;48.608;8.838;2024-02-26T03:43:39;6.90;50.80
32293;DHT22;43233;48.608;8.838;2024-02-26T03:46:07;6.90;51.70
32293;DHT22;43233;48.608;8.838;2024-02-26T03:48:34;6.90;52.20
32293;DHT22;43233;48.608;8.838;2024-02-26T03:50:59;6.80;51.50
32293;DHT22;43233;48.608;8.838;2024-02-26T03:53:25;6.80;51.00
32293;DHT22;43233;48.608;8.838;2024-02-26T03:55:51;6.80;50.60
32293;DHT22;43233;48.608;8.838;2024-02-26T03:58:18;6.80;51.10
32293;DHT22;43233;48.608;8.838;2024-02-26T04:00:43;6.80;51.30
32293;DHT22;43233;48.608;8.838;2024-02-26T04:03:09;6.70;51.30
32293;DHT22;43233;48.608;8.838;2024-02-26T04:05:35;6.70;50.20
32293;DHT22;43233;48.608;8.838;2024-02-26T04:08:01;6.70;50.40
32293;DHT22;43233;48.608;8.838;2024-02-26T04:10:26;6.70;50.30
32293;DHT22;43233;48.608;8.838;2024-02-26T04:12:52;6.70;51.40
32293;DHT22;43233;48.608;8.838;2024-02-26T04:15:18;6.70;51.50
32293;DHT22;43233;48.608;8.838;2024-02-26T04:17:43;6.80;51.80
32293;DHT22;43233;48.608;8.838;2024-02-26T04:20:14;6.80;51.50
32293;DHT22;43233;48.608;8.838;2024-02-26T04:22:40;6.70;51.30
32293;DHT22;43233;48.608;8.838;2024-02-26T04:25:05;6.70;51.70
32293;DHT22;43233;48.608;8.838;2024-02-26T04:27:31;6.70;52.20
32293;DHT22;43233;48.608;8.838;2024-02-26T04:29:57;6.70;50.60
32293;DHT22;43233;48.608;8.838;2024-02-26T04:32:22;6.80;50.40
32293;DHT22;43233;48.608;8.838;2024-02-26T04:34:48;6.80;49.80
32293;DHT22;43233;48.608;8.838;2024-02-26T04:37:13;6.80;49.40
32293;DHT22;43233;48.608;8.838;2024-02-26T04:39:39;6.90;49.50
32293;DHT22;43233;48.608;8.838;2024-02-26T04:42:05;6.90;49.70
32293;DHT22;43233;48.608;8.838;2024-02-26T04:44:30;6.90;50.10
32293;DHT22;43233;48.608;8.838;2024-02-26T04:46:56;6.90;50.20
32293;DHT22;43233;48.608;8.838;2024-02-26T04:49:22;7.00;50.30
32293;DHT22;43233;48.608;8.838;2024-02-26T04:51:47;7.00;50.10
32293;DHT22;43233;48.608;8.838;2024-02-26T04:54:13;7.00;51.50
32293;DHT22;43233;48.608;8.838;2024-02-26T04:56:39;7.00;51.50
32293;DHT22;43233;48.608;8.838;2024-02-26T04:59:04;6.90;51.70
32293;DHT22;43233;48.608;8.838;2024-02-26T05:01:30;6.90;52.20
32293;DHT22;43233;48.608;8.838;2024-02-26T05:03:56;6.80;52.60
32293;DHT22;43233;48.608;8.838;2024-02-26T05:06:21;6.80;53.40
32293;DHT22;43233;48.608;8.838;2024-02-26T05:08:47;6.70;54.20
32293;DHT22;43233;48.608;8.838;2024-02-26T05:11:12;6.70;54.40
32293;DHT22;43233;48.608;8.838;2024-02-26T05:13:38;6.70;54.60
32293;DHT22;43233;48.608;8.838;2024-02-26T05:16:04;6.70;55.10
32293;DHT22;43233;48.608;8.838;2024-02-26T05:18:29;6.70;55.50
32293;DHT22;43233;48.608;8.838;2024-02-26T05:20:55;6.70;55.80
32293;DHT22;43233;48.608;8.838;2024-02-26T05:23:20;6.70;55.90
32293;DHT22;43233;48.608;8.838;2024-02-26T05:25:46;6.80;56.30
32293;DHT22;43233;48.608;8.838;2024-02-26T05:28:13;6.80;56.50
32293;DHT22;43233;48.608;8.838;2024-02-26T05:30:41;6.80;57.00
32293;DHT22;43233;48.608;8.838;2024-02-26T05:33:07;6.80;57.00
32293;DHT22;43233;48.608;8.838;2024-02-26T05:35:33;6.90;57.20
32293;DHT22;43233;48.608;8.838;2024-02-26T05:37:58;6.90;57.20
32293;DHT22;43233;48.608;8.838;2024-02-26T05:40:24;6.90;57.40
32293;DHT22;43233;48.608;8.838;2024-02-26T05:42:49;6.90;57.90
32293;DHT22;43233;48.608;8.838;2024-02-26T05:45:15;6.90;58.10
32293;DHT22;43233;48.608;8.838;2024-02-26T05:47:41;6.90;58.40
32293;DHT22;43233;48.608;8.838;2024-02-26T05:50:11;6.90;58.30
32293;DHT22;43233;48.608;8.838;2024-02-26T05:52:37;6.90;58.70
32293;DHT22;43233;48.608;8.838;2024-02-26T05:55:05;6.80;58.70
32293;DHT22;43233;48.608;8.838;2024-02-26T05:57:32;6.80;59.60
32293;DHT22;43233;48.608;8.838;2024-02-26T05:59:58;6.80;59.90
32293;DHT22;43233;48.608;8.838;2024-02-26T06:02:29;6.70;60.10
32293;DHT22;43233;48.608;8.838;2024-02-26T06:04:54;6.80;60.40
32293;DHT22;43233;48.608;8.838;2024-02-26T06:07:20;6.80;60.80
32293;DHT22;43233;48.608;8.838;2024-02-26T06:09:46;6.70;61.50
32293;DHT22;43233;48.608;8.838;2024-02-26T06:12:11;6.70;61.70
32293;DHT22;43233;48.608;8.838;2024-02-26T06:14:37;6.70;61.50
32293;DHT22;43233;48.608;8.838;2024-02-26T06:17:02;6.70;61.80
32293;DHT22;43233;48.608;8.838;2024-02-26T06:19:28;6.60;61.90
32293;DHT22;43233;48.608;8.838;2024-02-26T06:21:54;6.70;61.80
32293;DHT22;43233;48.608;8.838;2024-02-26T06:24:19;6.70;61.30
32293;DHT22;43233;48.608;8.838;2024-02-26T06:26:48;6.60;61.30
32293;DHT22;43233;48.608;8.838;2024-02-26T06:29:14;6.60;62.00
32293;DHT22;43233;48.608;8.838;2024-02-26T06:31:40;6.50;62.40
32293;DHT22;43233;48.608;8.838;2024-02-26T06:34:05;6.50;63.30
32293;DHT22;43233;48.608;8.838;2024-02-26T06:36:31;6.40;64.10
32293;DHT22;43233;48.608;8.838;2024-02-26T06:38:57;6.30;65.20
32293;DHT22;43233;48.608;8.838;2024-02-26T06:41:23;6.20;65.70
32293;DHT22;43233;48.608;8.838;2024-02-26T06:43:55;6.20;66.60
32293;DHT22;43233;48.608;8.838;2024-02-26T06:46:22;6.10;66.90
32293;DHT22;43233;48.608;8.838;2024-02-26T06:48:48;6.10;66.90
32293;DHT22;43233;48.608;8.838;2024-02-26T06:51:15;6.10;67.30
32293;DHT22;43233;48.608;8.838;2024-02-26T06:53:40;6.10;67.60
32293;DHT22;43233;48.608;8.838;2024-02-26T06:56:06;6.10;67.80
32293;DHT22;43233;48.608;8.838;2024-02-26T06:58:32;6.10;67.80
32293;DHT22;43233;48.608;8.838;2024-02-26T07:00:58;6.10;68.80
32293;DHT22;43233;48.608;8.838;2024-02-26T07:03:24;6.10;69.10
32293;DHT22;43233;48.608;8.838;2024-02-26T07:05:51;6.10;69.30
32293;DHT22;43233;48.608;8.838;2024-02-26T07:08:17;6.10;69.60
32293;DHT22;43233;48.608;8.838;2024-02-26T07:10:43;6.10;69.50
32293;DHT22;43233;48.608;8.838;2024-02-26T07:13:08;6.10;69.10
32293;DHT22;43233;48.608;8.838;2024-02-26T07:15:34;6.20;68.00
32293;DHT22;43233;48.608;8.838;2024-02-26T07:18:00;6.30;67.70
32293;DHT22;43233;48.608;8.838;2024-02-26T07:20:29;6.30;65.30
32293;DHT22;43233;48.608;8.838;2024-02-26T07:22:55;6.40;66.70
32293;DHT22;43233;48.608;8.838;2024-02-26T07:25:21;6.40;67.70
32293;DHT22;43233;48.608;8.838;2024-02-26T07:27:47;6.40;67.40
32293;DHT22;43233;48.608;8.838;2024-02-26T07:30:12;6.40;66.10
32293;DHT22;43233;48.608;8.838;2024-02-26T07:32:39;6.40;65.50
32293;DHT22;43233;48.608;8.838;2024-02-26T07:35:05;6.40;65.30
32293;DHT22;43233;48.608;8.838;2024-02-26T07:37:30;6.40;64.90
32293;DHT22;43233;48.608;8.838;2024-02-26T07:39:56;6.40;64.50
32293;DHT22;43233;48.608;8.838;2024-02-26T07:42:22;6.50;64.70
32293;DHT22;43233;48.608;8.838;2024-02-26T07:44:47;6.50;64.80
32293;DHT22;43233;48.608;8.838;2024-02-26T07:47:13;6.40;64.70
32293;DHT22;43233;48.608;8.838;2024-02-26T07:49:39;6.50;65.00
32293;DHT22;43233;48.608;8.838;2024-02-26T07:52:05;6.40;65.60
32293;DHT22;43233;48.608;8.838;2024-02-26T07:54:31;6.50;67.10
32293;DHT22;43233;48.608;8.838;2024-02-26T07:56:56;6.50;68.10
32293;DHT22;43233;48.608;8.838;2024-02-26T07:59:22;6.40;68.80
32293;DHT22;43233;48.608;8.838;2024-02-26T08:01:51;6.40;69.60
32293;DHT22;43233;48.608;8.838;2024-02-26T08:04:17;6.40;70.60
32293;DHT22;43233;48.608;8.838;2024-02-26T08:06:42;6.40;71.20
32293;DHT22;43233;48.608;8.838;2024-02-26T08:09:08;6.40;71.80
32293;DHT22;43233;48.608;8.838;2024-02-26T08:11:34;6.30;72.10
32293;DHT22;43233;48.608;8.838;2024-02-26T08:13:59;6.20;72.40
32293;DHT22;43233;48.608;8.838;2024-02-26T08:16:25;6.20;72.80
32293;DHT22;43233;48.608;8.838;2024-02-26T08:18:51;6.20;73.50
32293;DHT22;43233;48.608;8.838;2024-02-26T08:21:16;6.10;74.20
32293;DHT22;43233;48.608;8.838;2024-02-26T08:23:43;6.20;74.20
32293;DHT22;43233;48.608;8.838;2024-02-26T08:26:09;6.20;74.30
32293;DHT22;43233;48.608;8.838;2024-02-26T08:28:39;6.20;74.30
32293;DHT22;43233;48.608;8.838;2024-02-26T08:31:05;6.20;73.90
32293;DHT22;43233;48.608;8.838;2024-02-26T08:33:31;6.30;73.70
32293;DHT22;43233;48.608;8.838;2024-02-26T08:35:56;6.30;72.90
32293;DHT22;43233;48.608;8.838;2024-02-26T08:38:22;6.30;72.60
32293;DHT22;43233;48.608;8.838;2024-02-26T08:40:48;6.40;73.00
32293;DHT22;43233;48.608;8.838;2024-02-26T08:43:14;6.40;70.90
32293;DHT22;43233;48.608;8.838;2024-02-26T08:45:40;6.40;70.90
32293;DHT22;43233;48.608;8.838;2024-02-26T08:48:06;6.40;70.90
32293;DHT22;43233;48.608;8.838;2024-02-26T08:50:31;6.40;71.00
32293;DHT22;43233;48.608;8.838;2024-02-26T08:52:57;6.40;70.60
32293;DHT22;43233;48.608;8.838;2024-02-26T08:55:23;6.40;70.30
32293;DHT22;43233;48.608;8.838;2024-02-26T08:57:48;6.50;70.50
32293;DHT22;43233;48.608;8.838;2024-02-26T09:00:14;6.40;71.20
32293;DHT22;43233;48.608;8.838;2024-02-26T09:02:46;6.50;71.50
32293;DHT22;43233;48.608;8.838;2024-02-26T09:05:12;6.60;70.80
32293;DHT22;43233;48.608;8.838;2024-02-26T09:07:38;6.60;71.10
32293;DHT22;43233;48.608;8.838;2024-02-26T09:10:05;6.60;71.10
32293;DHT22;43233;48.608;8.838;2024-02-26T09:12:30;6.70;69.80
32293;DHT22;43233;48.608;8.838;2024-02-26T09:14:56;6.70;69.50
32293;DHT22;43233;48.608;8.838;2024-02-26T09:17:23;6.80;69.80
32293;DHT22;43233;48.608;8.838;2024-02-26T09:19:48;7.00;68.20
32293;DHT22;43233;48.608;8.838;2024-02-26T09:22:14;7.20;68.00
32293;DHT22;43233;48.608;8.838;2024-02-26T09:24:40;7.30;66.00
32293;DHT22;43233;48.608;8.838;2024-02-26T09:27:05;7.40;63.70
32293;DHT22;43233;48.608;8.838;2024-02-26T09:29:31;7.40;62.50
32293;DHT22;43233;48.608;8.838;2024-02-26T09:31:57;7.50;62.20
32293;DHT22;43233;48.608;8.838;2024-02-26T09:34:23;7.50;61.40
32293;DHT22;43233;48.608;8.838;2024-02-26T09:36:48;7.60;62.40
32293;DHT22;43233;48.608;8.838;2024-02-26T09:39:14;7.80;62.20
32293;DHT22;43233;48.608;8.838;2024-02-26T09:41:45;8.00;61.00
32293;DHT22;43233;48.608;8.838;2024-02-26T09:44:11;8.10;58.70
32293;DHT22;43233;48.608;8.838;2024-02-26T09:46:38;8.40;58.00
32293;DHT22;43233;48.608;8.838;2024-02-26T09:49:04;8.60;58.50
32293;DHT22;43233;48.608;8.838;2024-02-26T09:51:31;8.90;58.20
32293;DHT22;43233;48.608;8.838;2024-02-26T09:53:59;9.30;56.50
32293;DHT22;43233;48.608;8.838;2024-02-26T09:56:26;9.70;51.70
32293;DHT22;43233;48.608;8.838;2024-02-26T09:58:54;10.00;50.20
32293;DHT22;43233;48.608;8.838;2024-02-26T10:01:20;10.20;48.30
32293;DHT22;43233;48.608;8.838;2024-02-26T10:03:51;10.20;48.50
32293;DHT22;43233;48.608;8.838;2024-02-26T10:06:18;10.20;49.90
32293;DHT22;43233;48.608;8.838;2024-02-26T10:08:43;10.10;49.50
32293;DHT22;43233;48.608;8.838;2024-02-26T10:11:10;10.00;49.80
32293;DHT22;43233;48.608;8.838;2024-02-26T10:13:36;9.90;51.10
32293;DHT22;43233;48.608;8.838;2024-02-26T10:16:02;9.70;51.40
32293;DHT22;43233;48.608;8.838;2024-02-26T10:18:45;9.70;51.70
32293;DHT22;43233;48.608;8.838;2024-02-26T10:21:11;9.60;50.90
32293;DHT22;43233;48.608;8.838;2024-02-26T10:23:36;9.60;50.10
32293;DHT22;43233;48.608;8.838;2024-02-26T10:26:02;9.60;50.00
32293;DHT22;43233;48.608;8.838;2024-02-26T10:28:29;9.60;51.00
32293;DHT22;43233;48.608;8.838;2024-02-26T10:30:55;9.60;50.90
32293;DHT22;43233;48.608;8.838;2024-02-26T10:33:22;9.60;50.50
32293;DHT22;43233;48.608;8.838;2024-02-26T10:35:49;9.60;49.10
32293;DHT22;43233;48.608;8.838;2024-02-26T10:38:14;9.70;49.50
32293;DHT22;43233;48.608;8.838;2024-02-26T10:40:45;9.70;50.30
32293;DHT22;43233;48.608;8.838;2024-02-26T10:43:11;9.80;51.50
32293;DHT22;43233;48.608;8.838;2024-02-26T10:45:38;9.90;51.60
32293;DHT22;43233;48.608;8.838;2024-02-26T10:48:10;10.00;51.70
32293;DHT22;43233;48.608;8.838;2024-02-26T10:50:36;10.10;51.90
32293;DHT22;43233;48.608;8.838;2024-02-26T10:53:04;10.30;52.50
32293;DHT22;43233;48.608;8.838;2024-02-26T10:55:33;10.40;52.30
32293;DHT22;43233;48.608;8.838;2024-02-26T10:58:01;10.40;51.20
32293;DHT22;43233;48.608;8.838;2024-02-26T11:00:28;10.60;51.80
32293;DHT22;43233;48.608;8.838;2024-02-26T11:02:55;10.80;51.40
32293;DHT22;43233;48.608;8.838;2024-02-26T11:05:24;11.20;50.10
32293;DHT22;43233;48.608;8.838;2024-02-26T11:07:50;11.60;47.60
32293;DHT22;43233;48.608;8.838;2024-02-26T11:10:17;11.90;47.60
32293;DHT22;43233;48.608;8.838;2024-02-26T11:12:43;12.10;46.90
32293;DHT22;43233;48.608;8.838;2024-02-26T11:15:09;12.20;45.90
32293;DHT22;43233;48.608;8.838;2024-02-26T11:17:35;12.30;45.10
32293;DHT22;43233;48.608;8.838;2024-02-26T11:20:02;12.50;45.40
32293;DHT22;43233;48.608;8.838;2024-02-26T11:22:31;12.80;44.10
32293;DHT22;43233;48.608;8.838;2024-02-26T11:24:57;13.10;42.40
32293;DHT22;43233;48.608;8.838;2024-02-26T11:27:50;13.30;40.70
32293;DHT22;43233;48.608;8.838;2024-02-26T11:30:15;13.50;38.40
32293;DHT22;43233;48.608;8.838;2024-02-26T11:32:46;13.70;38.10
32293;DHT22;43233;48.608;8.838;2024-02-26T11:35:13;14.10;37.30
32293;DHT22;43233;48.608;8.838;2024-02-26T11:37:41;14.20;35.70
32293;DHT22;43233;48.608;8.838;2024-02-26T11:40:17;14.10;36.20
32293;DHT22;43233;48.608;8.838;2024-02-26T11:42:44;13.80;36.90
32293;DHT22;43233;48.608;8.838;2024-02-26T11:48:03;13.30;38.90
32293;DHT22;43233;48.608;8.838;2024-02-26T11:50:42;13.00;38.90
32293;DHT22;43233;48.608;8.838;2024-02-26T11:58:40;12.40;39.70
32293;DHT22;43233;48.608;8.838;2024-02-26T12:01:09;12.30;39.00
32293;DHT22;43233;48.608;8.838;2024-02-26T12:03:54;12.10;40.10
32293;DHT22;43233;48.608;8.838;2024-02-26T12:06:20;12.00;41.40
32293;DHT22;43233;48.608;8.838;2024-02-26T12:08:46;11.90;41.30
32293;DHT22;43233;48.608;8.838;2024-02-26T12:11:15;11.90;41.90
32293;DHT22;43233;48.608;8.838;2024-02-26T12:13:41;11.80;41.60
32293;DHT22;43233;48.608;8.838;2024-02-26T12:16:07;11.70;42.30
32293;DHT22;43233;48.608;8.838;2024-02-26T12:18:34;11.60;42.80
32293;DHT22;43233;48.608;8.838;2024-02-26T12:21:03;11.60;42.60
32293;DHT22;43233;48.608;8.838;2024-02-26T12:23:29;11.60;42.20
32293;DHT22;43233;48.608;8.838;2024-02-26T12:25:59;11.70;42.10
32293;DHT22;43233;48.608;8.838;2024-02-26T12:28:29;11.80;43.20
32293;DHT22;43233;48.608;8.838;2024-02-26T12:30:54;11.80;43.00
32293;DHT22;43233;48.608;8.838;2024-02-26T12:33:20;11.90;42.30
32293;DHT22;43233;48.608;8.838;2024-02-26T12:35:46;11.90;42.50
32293;DHT22;43233;48.608;8.838;2024-02-26T12:38:14;11.90;42.80
32293;DHT22;43233;48.608;8.838;2024-02-26T12:40:40;12.00;42.70
32293;DHT22;43233;48.608;8.838;2024-02-26T12:43:06;12.00;42.10
32293;DHT22;43233;48.608;8.838;2024-02-26T12:45:39;12.10;42.30
32293;DHT22;43233;48.608;8.838;2024-02-26T12:48:05;12.30;42.30
32293;DHT22;43233;48.608;8.838;2024-02-26T12:50:31;12.60;42.40
32293;DHT22;43233;48.608;8.838;2024-02-26T12:52:58;13.10;40.70
32293;DHT22;43233;48.608;8.838;2024-02-26T12:55:24;13.70;37.70
32293;DHT22;43233;48.608;8.838;2024-02-26T12:57:51;14.50;34.80
32293;DHT22;43233;48.608;8.838;2024-02-26T13:00:22;15.30;33.30
32293;DHT22;43233;48.608;8.838;2024-02-26T13:02:50;16.00;32.10
32293;DHT22;43233;48.608;8.838;2024-02-26T13:05:16;16.60;30.10
32293;DHT22;43233;48.608;8.838;2024-02-26T13:07:46;17.10;30.10
32293;DHT22;43233;48.608;8.838;2024-02-26T13:10:13;17.20;27.70
32293;DHT22;43233;48.608;8.838;2024-02-26T13:12:48;17.00;27.40
32293;DHT22;43233;48.608;8.838;2024-02-26T13:15:18;16.60;28.20
32293;DHT22;43233;48.608;8.838;2024-02-26T13:17:47;16.20;29.00
32293;DHT22;43233;48.608;8.838;2024-02-26T13:20:24;15.70;28.60
32293;DHT22;43233;48.608;8.838;2024-02-26T13:22:49;15.30;29.10
32293;DHT22;43233;48.608;8.838;2024-02-26T13:25:20;15.00;30.50
32293;DHT22;43233;48.608;8.838;2024-02-26T13:27:46;14.80;30.20
32293;DHT22;43233;48.608;8.838;2024-02-26T13:30:12;14.70;30.80
32293;DHT22;43233;48.608;8.838;2024-02-26T13:32:39;14.60;31.00
32293;DHT22;43233;48.608;8.838;2024-02-26T13:35:09;14.60;31.10
32293;DHT22;43233;48.608;8.838;2024-02-26T13:37:38;14.60;31.20
32293;DHT22;43233;48.608;8.838;2024-02-26T13:40:11;14.60;31.10
32293;DHT22;43233;48.608;8.838;2024-02-26T13:42:37;14.60;30.90
32293;DHT22;43233;48.608;8.838;2024-02-26T13:45:04;14.50;30.20
32293;DHT22;43233;48.608;8.838;2024-02-26T13:47:32;14.60;31.10
32293;DHT22;43233;48.608;8.838;2024-02-26T13:49:58;14.60;30.90
32293;DHT22;43233;48.608;8.838;2024-02-26T13:52:24;14.70;30.80
32293;DHT22;43233;48.608;8.838;2024-02-26T13:54:51;14.80;30.80
32293;DHT22;43233;48.608;8.838;2024-02-26T13:57:16;14.90;30.80
32293;DHT22;43233;48.608;8.838;2024-02-26T13:59:43;15.10;30.40
32293;DHT22;43233;48.608;8.838;2024-02-26T14:02:09;15.20;30.30
32293;DHT22;43233;48.608;8.838;2024-02-26T14:04:35;15.30;29.10
32293;DHT22;43233;48.608;8.838;2024-02-26T14:07:01;15.40;28.90
32293;DHT22;43233;48.608;8.838;2024-02-26T14:09:27;15.40;28.80
32293;DHT22;43233;48.608;8.838;2024-02-26T14:11:52;15.40;29.00
32293;DHT22;43233;48.608;8.838;2024-02-26T14:14:18;15.40;28.80
32293;DHT22;43233;48.608;8.838;2024-02-26T14:16:43;15.40;28.90
32293;DHT22;43233;48.608;8.838;2024-02-26T14:19:09;15.40;28.70
32293;DHT22;43233;48.608;8.838;2024-02-26T14:21:35;15.40;28.50
32293;DHT22;43233;48.608;8.838;2024-02-26T14:24:00;15.40;28.20
32293;DHT22;43233;48.608;8.838;2024-02-26T14:26:26;15.30;28.20
32293;DHT22;43233;48.608;8.838;2024-02-26T14:28:52;15.30;27.90
32293;DHT22;43233;48.608;8.838;2024-02-26T14:31:18;15.20;27.00
32293;DHT22;43233;48.608;8.838;2024-02-26T14:33:44;15.10;28.30
32293;DHT22;43233;48.608;8.838;2024-02-26T14:36:11;14.90;28.90
32293;DHT22;43233;48.608;8.838;2024-02-26T14:38:37;14.80;29.20
32293;DHT22;43233;48.608;8.838;2024-02-26T14:41:04;14.70;29.30
32293;DHT22;43233;48.608;8.838;2024-02-26T14:43:29;14.70;29.80
32293;DHT22;43233;48.608;8.838;2024-02-26T14:45:57;14.60;29.60
32293;DHT22;43233;48.608;8.838;2024-02-26T14:48:22;14.60;29.50
32293;DHT22;43233;48.608;8.838;2024-02-26T14:50:49;14.60;29.40
32293;DHT22;43233;48.608;8.838;2024-02-26T14:53:16;14.50;29.40
32293;DHT22;43233;48.608;8.838;2024-02-26T14:55:42;14.40;29.70
32293;DHT22;43233;48.608;8.838;2024-02-26T14:58:08;14.30;30.10
32293;DHT22;43233;48.608;8.838;2024-02-26T15:00:36;14.20;30.70
32293;DHT22;43233;48.608;8.838;2024-02-26T15:03:02;14.10;30.20
32293;DHT22;43233;48.608;8.838;2024-02-26T15:05:28;14.00;30.40
32293;DHT22;43233;48.608;8.838;2024-02-26T15:07:54;13.90;31.20
32293;DHT22;43233;48.608;8.838;2024-02-26T15:10:20;13.90;31.50
32293;DHT22;43233;48.608;8.838;2024-02-26T15:12:45;13.80;31.90
32293;DHT22;43233;48.608;8.838;2024-02-26T15:15:11;13.80;31.90
32293;DHT22;43233;48.608;8.838;2024-02-26T15:17:37;13.70;31.50
32293;DHT22;43233;48.608;8.838;2024-02-26T15:20:02;13.60;31.70
32293;DHT22;43233;48.608;8.838;2024-02-26T15:22:28;13.50;31.50
32293;DHT22;43233;48.608;8.838;2024-02-26T15:24:54;13.40;31.30
32293;DHT22;43233;48.608;8.838;2024-02-26T15:27:19;13.30;31.80
32293;DHT22;43233;48.608;8.838;2024-02-26T15:29:45;13.30;32.40
32293;DHT22;43233;48.608;8.838;2024-02-26T15:32:11;13.20;32.90
32293;DHT22;43233;48.608;8.838;2024-02-26T15:34:37;13.20;33.70
32293;DHT22;43233;48.608;8.838;2024-02-26T15:37:03;13.10;33.90
32293;DHT22;43233;48.608;8.838;2024-02-26T15:39:29;13.10;34.40
32293;DHT22;43233;48.608;8.838;2024-02-26T15:41:54;13.10;35.00
32293;DHT22;43233;48.608;8.838;2024-02-26T15:44:20;13.10;34.80